Portada
METAR-TAF:

METAR-TAF

Aeroports :

Aeroport Internacional de Djerba

Gerba, Tunísia

latitud: 33-52N, longitud: 010-46E, altitud: 3 m

Observació

L'informe es va fer fa 17 minuts, a les 03:00 UTC
Vent 5 kt del Sud
Temperatura 9°C
Humitat 93%
Pressió 1022 hPa
Visibilitat: 5000 m

METAR: DTTJ 250300Z 18005KT 5000 NSC 09/08 Q1022 NOSIG

Hora: 04:17 (03:17 UTC)

Pronòstic

L'informe es va fer fa 4 hores i 17 minuts, a les 23:00 UTC
Pronòstic vàlid del 25 a les 00 UTC al 25 a les 24 UTC
Vent 3 kt del Sud-Oest
Visibilitat: 5000 m
Escasses núvols a una alçada de 2000 ft
Probabilitat 40% :
Temporalment
l' 25 a les 00 UTC al 25 a les 08 UTC
Visibilitat: 2000 m
boirina
Probabilitat 30% :
Temporalment
l' 25 a les 06 UTC al 25 a les 08 UTC
Visibilitat: 0500 m
boira
Probabilitat 30% :
Temporalment
l' 25 a les 20 UTC al 25 a les 24 UTC
Visibilitat: 4000 m
boirina

TAF: DTTJ 242300Z 2500/2524 23003KT 5000 FEW020 PROB40 TEMPO 2500/2508 2000 BR PROB30 TEMPO 2506/2508 0500 FG PROB30 TEMPO 2520/2524 4000 BR

Observacions i pronòstics meteorològics de més de 4000 aeroports (METAR i TAF).

Les estacions disponibles són els punts grocs i vermells al mapa.

Posi el ratolí al punt desitjat per veure el nom de l'estació.

Feu clic per veure les observacions i els pronòstics meteorològics.

Per canviar el mapa: feu clic els botons verds amb una creu de color negre per apropar; al botó verd amb un guió per allunyar la imatge; o en les fletxes verdes per a mapes adjacents.


METAR-TAF: